Observation data for Silverton on 05/16/2018      Previous  Date  Next       Current Mesonet Observations  Soil Data  Daily Summary Page  Observations in Plain Language
KSVS 160500Z 08005KT 17/12 A30 RMK A01 T01650117  RH  076%=      5-min Rain = 0
KSVS 160505Z 21006G12KT 17/11 A3002 RMK A01 T01740109  RH  068%=      5-min Rain = 0
KSVS 160510Z 23002KT 17/11 A3002 RMK A01 T01730108  RH  068%=      5-min Rain = 0
KSVS 160515Z 23005G11KT 17/11 A3002 RMK A01 T01730107  RH  067%=      5-min Rain = 0
KSVS 160520Z 23010KT 17/11 A3002 RMK A01 T01670110  RH  071%=      5-min Rain = 0
KSVS 160525Z 25009KT 17/11 A3002 RMK A01 T01670112  RH  073%=      5-min Rain = 0
KSVS 160530Z 27007KT 17/11 A3002 RMK A01 T01680113  RH  073%=      5-min Rain = 0
KSVS 160535Z 26008KT 17/11 A3003 RMK A01 T01670113  RH  073%=      5-min Rain = 0
KSVS 160540Z 26007KT 17/11 A3003 RMK A01 T01700112  RH  071%=      5-min Rain = 0
KSVS 160545Z 31006KT 17/11 A3003 RMK A01 T01670113  RH  073%=      5-min Rain = 0
KSVS 160550Z 33007KT 16/11 A3004 RMK A01 T01640114  RH  075%=      5-min Rain = 0
KSVS 160555Z 32008KT 16/12 A3005 RMK A01 T01640117  RH  077%=      5-min Rain = 0
KSVS 160600Z 30007KT 17/12 A3005 RMK A01 T01670118  RH  075%=      5-min Rain = 0
KSVS 160605Z 28006KT 17/12 A3005 RMK A01 T01690118  RH  074%=      5-min Rain = 0
KSVS 160610Z 27008KT 17/12 A3004 RMK A01 T01690117  RH  074%=      5-min Rain = 0
KSVS 160615Z 23008KT 17/12 A3003 RMK A01 T01680116  RH  074%=      5-min Rain = 0
KSVS 160620Z 20011KT 17/11 A3003 RMK A01 T01690114  RH  072%=      5-min Rain = 0
KSVS 160625Z 21011KT 17/11 A3003 RMK A01 T01680114  RH  073%=      5-min Rain = 0
KSVS 160630Z 22010KT 16/12 A3003 RMK A01 T01640115  RH  076%=      5-min Rain = 0
KSVS 160635Z 20009KT 17/11 A3003 RMK A01 T01650113  RH  074%=      5-min Rain = 0
KSVS 160640Z 21010KT 17/11 A3003 RMK A01 T01660111  RH  072%=      5-min Rain = 0
KSVS 160645Z 21009KT 17/11 A3004 RMK A01 T01660112  RH  073%=      5-min Rain = 0
KSVS 160650Z 22011KT 17/11 A3004 RMK A01 T01650113  RH  074%=      5-min Rain = 0
KSVS 160655Z 22010KT 17/11 A3004 RMK A01 T01650112  RH  073%=      5-min Rain = 0
KSVS 160700Z 22010KT 17/11 A3004 RMK A01 T01670111  RH  072%=      5-min Rain = 0
KSVS 160705Z 22010KT 17/11 A3004 RMK A01 T01660110  RH  072%=      5-min Rain = 0
KSVS 160710Z 21010KT 16/11 A3003 RMK A01 T01630110  RH  073%=      5-min Rain = 0
KSVS 160715Z 20010KT 16/11 A3003 RMK A01 T01620108  RH  073%=      5-min Rain = 0
KSVS 160720Z 20010KT 16/11 A3003 RMK A01 T01600107  RH  073%=      5-min Rain = 0
KSVS 160725Z 20010KT 16/11 A3002 RMK A01 T01620106  RH  072%=      5-min Rain = 0
KSVS 160730Z 20009KT 16/11 A3003 RMK A01 T01630105  RH  071%=      5-min Rain = 0
KSVS 160735Z 21007KT 16/11 A3003 RMK A01 T01620107  RH  072%=      5-min Rain = 0
KSVS 160740Z 19003KT 16/11 A3003 RMK A01 T01620109  RH  073%=      5-min Rain = 0
KSVS 160745Z 05007KT 16/11 A3004 RMK A01 T01630110  RH  074%=      5-min Rain = 0
KSVS 160750Z 07007KT 16/11 A3004 RMK A01 T01640110  RH  073%=      5-min Rain = 0
KSVS 160755Z 12004G9KT 17/10 A3004 RMK A01 T01740103  RH  065%=      5-min Rain = 0
KSVS 160800Z 18005KT 17/10 A3003 RMK A01 T01730103  RH  066%=      5-min Rain = 0
KSVS 160805Z 19007KT 18/10 A3002 RMK A01 T01750103  RH  065%=      5-min Rain = 0
KSVS 160810Z 20005KT 17/10 A3002 RMK A01 T01710104  RH  067%=      5-min Rain = 0
KSVS 160815Z 18002KT 17/10 A3002 RMK A01 T01690104  RH  068%=      5-min Rain = 0
KSVS 160820Z 03008KT 17/11 A3003 RMK A01 T01650111  RH  073%=      5-min Rain = 0
KSVS 160825Z 03008KT 16/11 A3004 RMK A01 T01640114  RH  075%=      5-min Rain = 0
KSVS 160830Z 04007KT 16/12 A3004 RMK A01 T01630115  RH  076%=      5-min Rain = 0
KSVS 160835Z 04007KT 16/12 A3004 RMK A01 T01620116  RH  077%=      5-min Rain = 0
KSVS 160840Z 02005KT 16/12 A3004 RMK A01 T01590116  RH  078%=      5-min Rain = 0
KSVS 160845Z 03009KT 16/12 A3004 RMK A01 T01560116  RH  080%=      5-min Rain = 0
KSVS 160850Z 04008KT 16/12 A3004 RMK A01 T01560119  RH  081%=      5-min Rain = 0
KSVS 160855Z 03007KT 16/12 A3004 RMK A01 T01570119  RH  081%=      5-min Rain = 0
KSVS 160900Z 02009KT 16/12 A3005 RMK A01 T01560119  RH  081%=      5-min Rain = 0
KSVS 160905Z 02008KT 16/12 A3005 RMK A01 T01560120  RH  082%=      5-min Rain = 0
KSVS 160910Z 02006KT 16/12 A3005 RMK A01 T01570119  RH  081%=      5-min Rain = 0
KSVS 160915Z 05005KT 16/12 A3004 RMK A01 T01570117  RH  080%=      5-min Rain = 0
KSVS 160920Z 05005KT 15/12 A3005 RMK A01 T01540118  RH  082%=      5-min Rain = 0
KSVS 160925Z 04006KT 15/12 A3005 RMK A01 T01520118  RH  083%=      5-min Rain = 0
KSVS 160930Z 03006KT 15/12 A3005 RMK A01 T01510118  RH  084%=      5-min Rain = 0
KSVS 160935Z 05008KT 15/12 A3004 RMK A01 T01530118  RH  082%=      5-min Rain = 0
KSVS 160940Z 07006KT 15/12 A3005 RMK A01 T01530117  RH  082%=      5-min Rain = 0
KSVS 160945Z 09005KT 15/12 A3006 RMK A01 T01540117  RH  081%=      5-min Rain = 0
KSVS 160950Z 05005KT 15/12 A3006 RMK A01 T01520116  RH  082%=      5-min Rain = 0
KSVS 160955Z 06004KT 15/12 A3005 RMK A01 T01490115  RH  083%=      5-min Rain = 0
KSVS 161000Z 09006KT 15/12 A3004 RMK A01 T01470115  RH  084%=      5-min Rain = 0
KSVS 161005Z 12008KT 15/11 A3003 RMK A01 T01480114  RH  083%=      5-min Rain = 0
KSVS 161010Z 15007KT 15/11 A3003 RMK A01 T01450112  RH  083%=      5-min Rain = 0
KSVS 161015Z 12004KT 15/11 A3004 RMK A01 T01450111  RH  083%=      5-min Rain = 0
KSVS 161020Z 05004KT 14/11 A3004 RMK A01 T01430109  RH  083%=      5-min Rain = 0
KSVS 161025Z 05005KT 14/11 A3005 RMK A01 T01410110  RH  084%=      5-min Rain = 0
KSVS 161030Z 02005KT 14/11 A3004 RMK A01 T01390108  RH  085%=      5-min Rain = 0
KSVS 161035Z 02007KT 14/11 A3004 RMK A01 T01350107  RH  086%=      5-min Rain = 0
KSVS 161040Z 03008KT 14/11 A3004 RMK A01 T01350108  RH  087%=      5-min Rain = 0
KSVS 161045Z 02008KT 14/11 A3004 RMK A01 T01380111  RH  087%=      5-min Rain = 0
KSVS 161050Z 02008KT 14/11 A3003 RMK A01 T01410112  RH  086%=      5-min Rain = 0
KSVS 161055Z 03009KT 14/11 A3003 RMK A01 T01420114  RH  087%=      5-min Rain = 0
KSVS 161100Z 03009KT 15/12 A3002 RMK A01 T01470120  RH  087%=      5-min Rain = 0
KSVS 161105Z 03007KT 15/12 A3002 RMK A01 T01470120  RH  087%=      5-min Rain = 0
KSVS 161110Z 03009KT 15/12 A3001 RMK A01 T01460121  RH  088%=      5-min Rain = 0
KSVS 161115Z 04008KT 15/12 A3002 RMK A01 T01480124  RH  089%=      5-min Rain = 0
KSVS 161120Z 04006KT 15/13 A3003 RMK A01 T01480125  RH  090%=      5-min Rain = 0
KSVS 161125Z 03006KT 15/13 A3003 RMK A01 T01490127  RH  090%=      5-min Rain = 0
KSVS 161130Z 03007KT 15/13 A3003 RMK A01 T01510130  RH  091%=      5-min Rain = 0
KSVS 161135Z 04006KT 15/13 A3004 RMK A01 T01540132  RH  091%=      5-min Rain = 0
KSVS 161140Z 03004KT 16/13 A3005 RMK A01 T01550133  RH  090%=      5-min Rain = 0
KSVS 161145Z 02003KT 16/13 A3006 RMK A01 T01570133  RH  089%=      5-min Rain = 0
KSVS 161150Z 01002KT 16/13 A3006 RMK A01 T01570133  RH  089%=      5-min Rain = 0
KSVS 161155Z 28001KT 16/13 A3007 RMK A01 T01580133  RH  089%=      5-min Rain = 0.01
KSVS 161200Z 27002KT 16/13 A3008 RMK A01 T01580134  RH  089%=      5-min Rain = 0
KSVS 161205Z 29002KT 16/13 A3008 RMK A01 T01580134  RH  089%=      5-min Rain = 0
KSVS 161210Z 16004KT 16/14 A3008 RMK A01 T01580135  RH  090%=      5-min Rain = 0
KSVS 161215Z 16004KT 16/14 A3007 RMK A01 T01580137  RH  091%=      5-min Rain = 0
KSVS 161220Z 18003KT 16/14 A3008 RMK A01 T01570136  RH  091%=      5-min Rain = 0
KSVS 161225Z 23001KT 16/14 A3008 RMK A01 T01580137  RH  091%=      5-min Rain = 0
KSVS 161230Z 25002KT 16/14 A3008 RMK A01 T01610140  RH  091%=      5-min Rain = 0
KSVS 161235Z 23006KT 16/14 A3009 RMK A01 T01610140  RH  091%=      5-min Rain = 0
KSVS 161240Z 23006KT 16/14 A3009 RMK A01 T01600139  RH  091%=      5-min Rain = 0
KSVS 161245Z 24005KT 16/14 A3008 RMK A01 T01590139  RH  092%=      5-min Rain = 0
KSVS 161250Z 23005KT 16/14 A3007 RMK A01 T01610141  RH  092%=      5-min Rain = 0
KSVS 161255Z 23005KT 16/14 A3007 RMK A01 T01630142  RH  092%=      5-min Rain = 0
KSVS 161300Z 23004KT 17/15 A3007 RMK A01 T01700147  RH  090%=      5-min Rain = 0
KSVS 161305Z 24005KT 17/14 A3007 RMK A01 T01690144  RH  089%=      5-min Rain = 0
KSVS 161310Z 23004KT 17/14 A3006 RMK A01 T01660142  RH  089%=      5-min Rain = 0
KSVS 161315Z 23005KT 17/14 A3007 RMK A01 T01690144  RH  089%=      5-min Rain = 0
KSVS 161320Z 22005KT 17/15 A3007 RMK A01 T01740145  RH  087%=      5-min Rain = 0
KSVS 161325Z 23005KT 18/15 A3008 RMK A01 T01770145  RH  085%=      5-min Rain = 0
KSVS 161330Z 24004KT 18/14 A3009 RMK A01 T01760142  RH  084%=      5-min Rain = 0
KSVS 161335Z 26003KT 18/15 A3009 RMK A01 T01830145  RH  082%=      5-min Rain = 0
KSVS 161340Z 30002KT 18/14 A301 RMK A01 T01830142  RH  081%=      5-min Rain = 0
KSVS 161345Z 35003KT 18/14 A301 RMK A01 T01800143  RH  083%=      5-min Rain = 0
KSVS 161350Z 35002KT 18/14 A301 RMK A01 T01810144  RH  083%=      5-min Rain = 0
KSVS 161355Z 00002KT 18/14 A301 RMK A01 T01810143  RH  082%=      5-min Rain = 0
KSVS 161400Z 00002KT 18/14 A301 RMK A01 T01800143  RH  082%=      5-min Rain = 0
KSVS 161405Z 34001KT 18/14 A301 RMK A01 T01810142  RH  082%=      5-min Rain = 0
KSVS 161410Z 34001KT 18/14 A301 RMK A01 T01830144  RH  081%=      5-min Rain = 0
KSVS 161415Z 34000KT 19/14 A301 RMK A01 T01850140  RH  078%=      5-min Rain = 0
KSVS 161420Z 06002KT 19/14 A301 RMK A01 T01880140  RH  077%=      5-min Rain = 0
KSVS 161425Z 05001KT 19/14 A301 RMK A01 T01880140  RH  077%=      5-min Rain = 0
KSVS 161430Z 02002KT 19/14 A301 RMK A01 T01870142  RH  078%=      5-min Rain = 0
KSVS 161435Z 01001KT 19/14 A301 RMK A01 T01870140  RH  078%=      5-min Rain = 0
KSVS 161440Z 11001KT 19/14 A301 RMK A01 T01900139  RH  075%=      5-min Rain = 0
KSVS 161445Z 11002KT 19/14 A301 RMK A01 T01930139  RH  074%=      5-min Rain = 0
KSVS 161450Z 13002KT 20/14 A301 RMK A01 T01960141  RH  074%=      5-min Rain = 0
KSVS 161455Z 14004KT 20/14 A301 RMK A01 T02000139  RH  071%=      5-min Rain = 0
KSVS 161500Z 13003KT 20/14 A301 RMK A01 T01990136  RH  070%=      5-min Rain = 0
KSVS 161505Z 13003KT 20/14 A301 RMK A01 T02000137  RH  070%=      5-min Rain = 0
KSVS 161510Z 12003KT 21/15 A301 RMK A01 T02070145  RH  071%=      5-min Rain = 0
KSVS 161515Z 13004KT 21/14 A301 RMK A01 T02100140  RH  067%=      5-min Rain = 0
KSVS 161520Z 13005KT 21/14 A301 RMK A01 T02120141  RH  066%=      5-min Rain = 0
KSVS 161525Z 12004KT 22/14 A301 RMK A01 T02150142  RH  066%=      5-min Rain = 0
KSVS 161530Z 14005KT 22/14 A301 RMK A01 T02210141  RH  063%=      5-min Rain = 0
KSVS 161535Z 13006KT 22/14 A3011 RMK A01 T02210139  RH  062%=      5-min Rain = 0
KSVS 161540Z 12007KT 22/14 A3011 RMK A01 T02230140  RH  062%=      5-min Rain = 0
KSVS 161545Z 13008KT 22/14 A3011 RMK A01 T02190136  RH  062%=      5-min Rain = 0
KSVS 161550Z 12010KT 22/14 A3012 RMK A01 T02150138  RH  064%=      5-min Rain = 0
KSVS 161555Z 11010KT 21/14 A3012 RMK A01 T02120140  RH  066%=      5-min Rain = 0
KSVS 161600Z 11011G16KT 21/14 A3012 RMK A01 T02140143  RH  066%=      5-min Rain = 0
KSVS 161605Z 13009KT 22/14 A3012 RMK A01 T02220143  RH  064%=      5-min Rain = 0
KSVS 161610Z 12009KT 22/14 A3012 RMK A01 T02210143  RH  064%=      5-min Rain = 0
KSVS 161615Z 11009KT 22/14 A3012 RMK A01 T02240143  RH  063%=      5-min Rain = 0
KSVS 161620Z 11010KT 22/14 A3012 RMK A01 T02240141  RH  062%=      5-min Rain = 0
KSVS 161625Z 11009KT 23/14 A3012 RMK A01 T02250139  RH  061%=      5-min Rain = 0
KSVS 161630Z 11008KT 23/14 A3011 RMK A01 T02320143  RH  060%=      5-min Rain = 0
KSVS 161635Z 13009KT 23/14 A3011 RMK A01 T02310139  RH  059%=      5-min Rain = 0
KSVS 161640Z 14009KT 23/14 A301 RMK A01 T02300137  RH  058%=      5-min Rain = 0
KSVS 161645Z 16010KT 23/14 A301 RMK A01 T02290137  RH  058%=      5-min Rain = 0
KSVS 161650Z 14010KT 23/14 A301 RMK A01 T02330138  RH  058%=      5-min Rain = 0
KSVS 161655Z 14008G13KT 23/14 A301 RMK A01 T02320136  RH  057%=      5-min Rain = 0
KSVS 161700Z 13010KT 23/14 A301 RMK A01 T02340136  RH  056%=      5-min Rain = 0
KSVS 161705Z 14009G14KT 23/14 A301 RMK A01 T02340135  RH  056%=      5-min Rain = 0
KSVS 161710Z 13008KT 24/14 A301 RMK A01 T02360135  RH  055%=      5-min Rain = 0
KSVS 161715Z 13010KT 24/14 A301 RMK A01 T02370136  RH  055%=      5-min Rain = 0
KSVS 161720Z 14011KT 24/14 A3009 RMK A01 T02370137  RH  056%=      5-min Rain = 0
KSVS 161725Z 15009G14KT 24/14 A3009 RMK A01 T02370135  RH  055%=      5-min Rain = 0
KSVS 161730Z 16009G14KT 24/14 A3009 RMK A01 T02390135  RH  054%=      5-min Rain = 0
KSVS 161735Z 14009G14KT 24/14 A3009 RMK A01 T02430136  RH  053%=      5-min Rain = 0
KSVS 161740Z 16011KT 24/13 A3009 RMK A01 T02430134  RH  053%=      5-min Rain = 0
KSVS 161745Z 15009G15KT 25/14 A3009 RMK A01 T02470136  RH  052%=      5-min Rain = 0
KSVS 161750Z 15011KT 25/13 A3008 RMK A01 T02460134  RH  052%=      5-min Rain = 0
KSVS 161755Z 14010G15KT 25/14 A3008 RMK A01 T02470136  RH  052%=      5-min Rain = 0
KSVS 161800Z 15011G17KT 25/14 A3008 RMK A01 T02520137  RH  051%=      5-min Rain = 0
KSVS 161805Z 16010KT 25/14 A3008 RMK A01 T02490137  RH  052%=      5-min Rain = 0
KSVS 161810Z 15011G16KT 25/14 A3007 RMK A01 T02510137  RH  051%=      5-min Rain = 0
KSVS 161815Z 14010KT 25/14 A3007 RMK A01 T02510138  RH  051%=      5-min Rain = 0
KSVS 161820Z 14011G16KT 25/14 A3006 RMK A01 T02530138  RH  051%=      5-min Rain = 0
KSVS 161825Z 15011G17KT 26/14 A3006 RMK A01 T02590137  RH  049%=      5-min Rain = 0
KSVS 161830Z 17010G15KT 26/14 A3006 RMK A01 T02550135  RH  049%=      5-min Rain = 0
KSVS 161835Z 15010G15KT 26/13 A3006 RMK A01 T02570132  RH  048%=      5-min Rain = 0
KSVS 161840Z 16013G18KT 26/14 A3005 RMK A01 T02610135  RH  048%=      5-min Rain = 0
KSVS 161845Z 16009KT 26/13 A3005 RMK A01 T02610133  RH  047%=      5-min Rain = 0
KSVS 161850Z 15008KT 26/13 A3005 RMK A01 T02600128  RH  046%=      5-min Rain = 0
KSVS 161855Z 17010G15KT 27/13 A3005 RMK A01 T02650128  RH  044%=      5-min Rain = 0
KSVS 161900Z 17010KT 27/13 A3004 RMK A01 T02650127  RH  044%=      5-min Rain = 0
KSVS 161905Z 17008G13KT 27/13 A3004 RMK A01 T02670126  RH  043%=      5-min Rain = 0
KSVS 161910Z 18011KT 27/12 A3004 RMK A01 T02720119  RH  040%=      5-min Rain = 0
KSVS 161915Z 16012G18KT 28/12 A3004 RMK A01 T02760116  RH  038%=      5-min Rain = 0
KSVS 161920Z 18009G14KT 28/11 A3004 RMK A01 T02750113  RH  038%=      5-min Rain = 0
KSVS 161925Z 15009G15KT 28/11 A3004 RMK A01 T02780113  RH  037%=      5-min Rain = 0
KSVS 161930Z 14010G15KT 28/11 A3004 RMK A01 T02810112  RH  036%=      5-min Rain = 0
KSVS 161935Z 14010G15KT 28/11 A3004 RMK A01 T02820109  RH  035%=      5-min Rain = 0
KSVS 161940Z 14008KT 28/11 A3004 RMK A01 T02770109  RH  036%=      5-min Rain = 0
KSVS 161945Z 14010G15KT 29/11 A3004 RMK A01 T02850108  RH  034%=      5-min Rain = 0
KSVS 161950Z 17009G14KT 29/11 A3004 RMK A01 T02850105  RH  034%=      5-min Rain = 0
KSVS 161955Z 16012G18KT 29/11 A3004 RMK A01 T02890106  RH  033%=      5-min Rain = 0
KSVS 162000Z 17012G17KT 29/10 A3004 RMK A01 T02880104  RH  033%=      5-min Rain = 0
KSVS 162005Z 17011G16KT 29/10 A3003 RMK A01 T02910104  RH  032%=      5-min Rain = 0
KSVS 162010Z 19011G17KT 30/10 A3003 RMK A01 T02950102  RH  031%=      5-min Rain = 0
KSVS 162015Z 16010G16KT 29/11 A3003 RMK A01 T02920107  RH  033%=      5-min Rain = 0
KSVS 162020Z 17010KT 29/10 A3003 RMK A01 T02890101  RH  032%=      5-min Rain = 0
KSVS 162025Z 19009G17KT 29/10 A3003 RMK A01 T02940100  RH  031%=      5-min Rain = 0
KSVS 162030Z 18012G18KT 29/10 A3003 RMK A01 T02890095  RH  031%=      5-min Rain = 0
KSVS 162035Z 20010G15KT 30/10 A3003 RMK A01 T02950095  RH  030%=      5-min Rain = 0
KSVS 162040Z 20010G16KT 29/10 A3003 RMK A01 T02890095  RH  031%=      5-min Rain = 0
KSVS 162045Z 17013G19KT 30/10 A3003 RMK A01 T02960097  RH  030%=      5-min Rain = 0
KSVS 162050Z 15008KT 30/10 A3003 RMK A01 T02970098  RH  030%=      5-min Rain = 0
KSVS 162055Z 17011G18KT 30/10 A3003 RMK A01 T02980096  RH  029%=      5-min Rain = 0
KSVS 162100Z 21013KT 30/10 A3003 RMK A01 T02970097  RH  030%=      5-min Rain = 0
KSVS 162105Z 21010G17KT 29/10 A3003 RMK A01 T02920101  RH  031%=      5-min Rain = 0
KSVS 162110Z 19010G19KT 29/10 A3002 RMK A01 T02920101  RH  032%=      5-min Rain = 0
KSVS 162115Z 19010G17KT 28/10 A3002 RMK A01 T02830102  RH  033%=      5-min Rain = 0
KSVS 162120Z 19008KT 29/10 A3002 RMK A01 T02890103  RH  033%=      5-min Rain = 0
KSVS 162125Z 19005KT 28/10 A3002 RMK A01 T02830104  RH  034%=      5-min Rain = 0
KSVS 162130Z 18009G14KT 29/11 A3002 RMK A01 T02890106  RH  033%=      5-min Rain = 0
KSVS 162135Z 17007KT 29/11 A3002 RMK A01 T02900105  RH  033%=      5-min Rain = 0
KSVS 162140Z 20006G14KT 29/11 A3001 RMK A01 T02920108  RH  033%=      5-min Rain = 0
KSVS 162145Z 20008KT 30/11 A3001 RMK A01 T02980108  RH  032%=      5-min Rain = 0
KSVS 162150Z 18009KT 28/11 A3001 RMK A01 T02830105  RH  034%=      5-min Rain = 0
KSVS 162155Z 20004G9KT 27/10 A3001 RMK A01 T02710102  RH  036%=      5-min Rain = 0
KSVS 162200Z 19003KT 28/11 A3001 RMK A01 T02830106  RH  034%=      5-min Rain = 0
KSVS 162205Z 18008KT 29/10 A30 RMK A01 T02940104  RH  032%=      5-min Rain = 0
KSVS 162210Z 22004KT 29/10 A30 RMK A01 T02930103  RH  032%=      5-min Rain = 0
KSVS 162215Z 17008G13KT 29/10 A30 RMK A01 T02940103  RH  032%=      5-min Rain = 0
KSVS 162220Z 18005G10KT 29/10 A30 RMK A01 T02930103  RH  032%=      5-min Rain = 0
KSVS 162225Z 22007G12KT 29/10 A2999 RMK A01 T02930104  RH  032%=      5-min Rain = 0
KSVS 162230Z 18006KT 29/11 A2999 RMK A01 T02940105  RH  032%=      5-min Rain = 0
KSVS 162235Z 17010KT 29/11 A2999 RMK A01 T02930106  RH  032%=      5-min Rain = 0
KSVS 162240Z 16007KT 29/11 A2999 RMK A01 T02920105  RH  032%=      5-min Rain = 0
KSVS 162245Z 17006KT 29/10 A2999 RMK A01 T02940104  RH  032%=      5-min Rain = 0
KSVS 162250Z 16006G11KT 30/11 A2998 RMK A01 T02960105  RH  032%=      5-min Rain = 0
KSVS 162255Z 15008KT 30/11 A2998 RMK A01 T02950105  RH  032%=      5-min Rain = 0
KSVS 162300Z 16011G16KT 29/10 A2998 RMK A01 T02920104  RH  032%=      5-min Rain = 0
KSVS 162305Z 17007KT 29/10 A2998 RMK A01 T02920102  RH  032%=      5-min Rain = 0
KSVS 162310Z 14007G12KT 29/10 A2998 RMK A01 T02930099  RH  031%=      5-min Rain = 0
KSVS 162315Z 15010KT 29/10 A2998 RMK A01 T02920097  RH  031%=      5-min Rain = 0
KSVS 162320Z 17009KT 29/10 A2997 RMK A01 T02940100  RH  031%=      5-min Rain = 0
KSVS 162325Z 17009KT 29/10 A2998 RMK A01 T02920101  RH  031%=      5-min Rain = 0
KSVS 162330Z 18009KT 29/10 A2997 RMK A01 T02900101  RH  032%=      5-min Rain = 0
KSVS 162335Z 17007KT 29/10 A2997 RMK A01 T02920100  RH  031%=      5-min Rain = 0
KSVS 162340Z 14009KT 29/10 A2997 RMK A01 T02930099  RH  031%=      5-min Rain = 0
KSVS 162345Z 15010G16KT 29/10 A2997 RMK A01 T02910098  RH  031%=      5-min Rain = 0
KSVS 162350Z 14011G16KT 29/10 A2996 RMK A01 T02880097  RH  031%=      5-min Rain = 0
KSVS 162355Z 15011KT 29/10 A2996 RMK A01 T02880098  RH  031%=      5-min Rain = 0
KSVS 170000Z 15010KT 29/10 A2996 RMK A01 T02890099  RH  032%=      5-min Rain = 0
KSVS 170005Z 14011KT 29/10 A2996 RMK A01 T02850098  RH  032%=      5-min Rain = 0
KSVS 170010Z 13011KT 28/10 A2996 RMK A01 T02820099  RH  033%=      5-min Rain = 0
KSVS 170015Z 14012KT 28/10 A2996 RMK A01 T02810099  RH  033%=      5-min Rain = 0
KSVS 170020Z 14011KT 28/10 A2996 RMK A01 T02800099  RH  033%=      5-min Rain = 0
KSVS 170025Z 13012KT 28/10 A2996 RMK A01 T02790101  RH  034%=      5-min Rain = 0
KSVS 170030Z 13012KT 28/10 A2996 RMK A01 T02760101  RH  035%=      5-min Rain = 0
KSVS 170035Z 13010G15KT 28/10 A2996 RMK A01 T02750102  RH  035%=      5-min Rain = 0
KSVS 170040Z 14012KT 27/10 A2996 RMK A01 T02740102  RH  035%=      5-min Rain = 0
KSVS 170045Z 13011KT 27/10 A2996 RMK A01 T02720102  RH  036%=      5-min Rain = 0
KSVS 170050Z 13011KT 27/10 A2996 RMK A01 T02700104  RH  036%=      5-min Rain = 0
KSVS 170055Z 13010KT 27/11 A2996 RMK A01 T02680106  RH  038%=      5-min Rain = 0
KSVS 170100Z 14012KT 27/11 A2996 RMK A01 T02660105  RH  038%=      5-min Rain = 0
KSVS 170105Z 13010KT 26/11 A2996 RMK A01 T02630106  RH  039%=      5-min Rain = 0
KSVS 170110Z 14012G17KT 26/11 A2996 RMK A01 T02610106  RH  039%=      5-min Rain = 0
KSVS 170115Z 13011KT 26/11 A2996 RMK A01 T02580106  RH  040%=      5-min Rain = 0
KSVS 170120Z 13010KT 26/11 A2996 RMK A01 T02550106  RH  040%=      5-min Rain = 0
KSVS 170125Z 13011KT 25/11 A2996 RMK A01 T02520106  RH  041%=      5-min Rain = 0
KSVS 170130Z 13009KT 25/11 A2996 RMK A01 T02480107  RH  043%=      5-min Rain = 0
KSVS 170135Z 13009KT 24/11 A2996 RMK A01 T02440108  RH  044%=      5-min Rain = 0
KSVS 170140Z 11010KT 24/11 A2996 RMK A01 T02400110  RH  045%=      5-min Rain = 0
KSVS 170145Z 11011KT 24/13 A2996 RMK A01 T02400126  RH  051%=      5-min Rain = 0
KSVS 170150Z 11011KT 24/13 A2997 RMK A01 T02380132  RH  053%=      5-min Rain = 0
KSVS 170155Z 11010KT 24/13 A2997 RMK A01 T02350133  RH  055%=      5-min Rain = 0
KSVS 170200Z 11009KT 23/13 A2997 RMK A01 T02320133  RH  056%=      5-min Rain = 0
KSVS 170205Z 10010G15KT 23/13 A2997 RMK A01 T02290134  RH  057%=      5-min Rain = 0
KSVS 170210Z 10011KT 23/13 A2997 RMK A01 T02310133  RH  056%=      5-min Rain = 0
KSVS 170215Z 11010KT 23/13 A2997 RMK A01 T02290131  RH  056%=      5-min Rain = 0
KSVS 170220Z 11011G16KT 23/13 A2997 RMK A01 T02280129  RH  056%=      5-min Rain = 0
KSVS 170225Z 11012KT 23/13 A2997 RMK A01 T02260128  RH  056%=      5-min Rain = 0
KSVS 170230Z 11013KT 23/13 A2997 RMK A01 T02250127  RH  056%=      5-min Rain = 0
KSVS 170235Z 11014G19KT 23/13 A2997 RMK A01 T02250127  RH  056%=      5-min Rain = 0
KSVS 170240Z 11013G18KT 22/13 A2997 RMK A01 T02230127  RH  056%=      5-min Rain = 0
KSVS 170245Z 10015G20KT 22/13 A2998 RMK A01 T02220127  RH  057%=      5-min Rain = 0
KSVS 170250Z 10014G19KT 22/13 A2998 RMK A01 T02210127  RH  057%=      5-min Rain = 0
KSVS 170255Z 11014KT 22/13 A2998 RMK A01 T02200128  RH  058%=      5-min Rain = 0
KSVS 170300Z 11013KT 22/13 A2998 RMK A01 T02180128  RH  059%=      5-min Rain = 0
KSVS 170305Z 11014G19KT 22/13 A2998 RMK A01 T02180128  RH  059%=      5-min Rain = 0
KSVS 170310Z 11014G21KT 22/13 A2998 RMK A01 T02160128  RH  059%=      5-min Rain = 0
KSVS 170315Z 11013G18KT 22/13 A2998 RMK A01 T02150128  RH  060%=      5-min Rain = 0
KSVS 170320Z 12013KT 21/13 A2998 RMK A01 T02140129  RH  060%=      5-min Rain = 0
KSVS 170325Z 12012KT 21/13 A2999 RMK A01 T02120129  RH  061%=      5-min Rain = 0
KSVS 170330Z 11012KT 21/13 A2999 RMK A01 T02110128  RH  061%=      5-min Rain = 0
KSVS 170335Z 12012KT 21/13 A2999 RMK A01 T02100127  RH  061%=      5-min Rain = 0
KSVS 170340Z 12013KT 21/13 A2999 RMK A01 T02100127  RH  062%=      5-min Rain = 0
KSVS 170345Z 12013KT 21/13 A2999 RMK A01 T02080128  RH  062%=      5-min Rain = 0
KSVS 170350Z 12013KT 21/13 A2999 RMK A01 T02070128  RH  063%=      5-min Rain = 0
KSVS 170355Z 13012KT 21/13 A2999 RMK A01 T02050128  RH  063%=      5-min Rain = 0
KSVS 170400Z 13011G16KT 20/13 A2999 RMK A01 T02030128  RH  064%=      5-min Rain = 0
KSVS 170405Z 13012KT 20/13 A30 RMK A01 T02040128  RH  064%=      5-min Rain = 0
KSVS 170410Z 13011KT 20/13 A30 RMK A01 T02040127  RH  064%=      5-min Rain = 0
KSVS 170415Z 14012G18KT 20/13 A30 RMK A01 T02040128  RH  064%=      5-min Rain = 0
KSVS 170420Z 14011G16KT 20/13 A30 RMK A01 T02030128  RH  065%=      5-min Rain = 0
KSVS 170425Z 14011KT 20/13 A30 RMK A01 T02000129  RH  066%=      5-min Rain = 0
KSVS 170430Z 14011KT 20/13 A30 RMK A01 T01990129  RH  067%=      5-min Rain = 0
KSVS 170435Z 14011KT 20/13 A30 RMK A01 T01980130  RH  067%=      5-min Rain = 0
KSVS 170440Z 13010KT 20/13 A30 RMK A01 T01960130  RH  068%=      5-min Rain = 0
KSVS 170445Z 14010KT 20/13 A30 RMK A01 T01950131  RH  069%=      5-min Rain = 0
KSVS 170450Z 14010KT 20/13 A30 RMK A01 T01950131  RH  069%=      5-min Rain = 0
KSVS 170455Z 14010KT 20/13 A30 RMK A01 T01950131  RH  069%=      5-min Rain = 0

Page generated in 0.0108 seconds.